sensor_id;sensor_type;location;lat;lon;timestamp;P1;durP1;ratioP1;P2;durP2;ratioP2
72109;SDS011;59983;52.010;5.420;2022-10-17T00:02:05;7.38;;;6.78;;
72109;SDS011;59983;52.010;5.420;2022-10-17T00:04:32;8.20;;;7.50;;
72109;SDS011;59983;52.010;5.420;2022-10-17T00:06:59;7.18;;;6.65;;
72109;SDS011;59983;52.010;5.420;2022-10-17T00:09:26;7.47;;;6.88;;
72109;SDS011;59983;52.010;5.420;2022-10-17T00:11:52;7.77;;;7.07;;
72109;SDS011;59983;52.010;5.420;2022-10-17T00:14:19;10.38;;;7.15;;
72109;SDS011;59983;52.010;5.420;2022-10-17T00:16:45;8.77;;;7.28;;
72109;SDS011;59983;52.010;5.420;2022-10-17T00:19:11;8.30;;;7.50;;
72109;SDS011;59983;52.010;5.420;2022-10-17T00:21:38;9.05;;;8.20;;
72109;SDS011;59983;52.010;5.420;2022-10-17T00:24:04;8.17;;;7.40;;
72109;SDS011;59983;52.010;5.420;2022-10-17T00:26:31;8.20;;;7.38;;
72109;SDS011;59983;52.010;5.420;2022-10-17T00:28:58;7.57;;;6.97;;
72109;SDS011;59983;52.010;5.420;2022-10-17T00:31:24;9.15;;;6.80;;
72109;SDS011;59983;52.010;5.420;2022-10-17T00:33:51;8.13;;;7.38;;
72109;SDS011;59983;52.010;5.420;2022-10-17T00:36:19;7.73;;;7.03;;
72109;SDS011;59983;52.010;5.420;2022-10-17T00:38:49;7.95;;;7.15;;
72109;SDS011;59983;52.010;5.420;2022-10-17T00:41:19;8.10;;;7.50;;
72109;SDS011;59983;52.010;5.420;2022-10-17T00:43:48;7.70;;;7.10;;
72109;SDS011;59983;52.010;5.420;2022-10-17T00:46:19;7.82;;;7.05;;
72109;SDS011;59983;52.010;5.420;2022-10-17T00:48:50;7.63;;;7.00;;
72109;SDS011;59983;52.010;5.420;2022-10-17T00:51:19;8.65;;;7.95;;
72109;SDS011;59983;52.010;5.420;2022-10-17T00:53:47;8.05;;;7.43;;
72109;SDS011;59983;52.010;5.420;2022-10-17T00:56:17;8.35;;;7.72;;
72109;SDS011;59983;52.010;5.420;2022-10-17T00:58:46;7.85;;;7.22;;
72109;SDS011;59983;52.010;5.420;2022-10-17T01:01:13;7.70;;;7.00;;
72109;SDS011;59983;52.010;5.420;2022-10-17T01:03:40;8.60;;;7.90;;
72109;SDS011;59983;52.010;5.420;2022-10-17T01:06:06;9.60;;;8.48;;
72109;SDS011;59983;52.010;5.420;2022-10-17T01:08:33;8.18;;;7.45;;
72109;SDS011;59983;52.010;5.420;2022-10-17T01:22:14;9.48;;;8.55;;
72109;SDS011;59983;52.010;5.420;2022-10-17T01:36:08;9.13;;;8.20;;
72109;SDS011;59983;52.010;5.420;2022-10-17T01:38:43;9.77;;;8.98;;
72109;SDS011;59983;52.010;5.420;2022-10-17T01:41:25;9.63;;;8.67;;
72109;SDS011;59983;52.010;5.420;2022-10-17T01:44:41;9.27;;;8.40;;
72109;SDS011;59983;52.010;5.420;2022-10-17T01:46:51;9.20;;;8.60;;
72109;SDS011;59983;52.010;5.420;2022-10-17T01:49:25;9.02;;;8.32;;
72109;SDS011;59983;52.010;5.420;2022-10-17T01:51:56;9.80;;;9.00;;
72109;SDS011;59983;52.010;5.420;2022-10-17T01:54:29;8.73;;;8.13;;
72109;SDS011;59983;52.010;5.420;2022-10-17T01:56:58;9.20;;;8.60;;
72109;SDS011;59983;52.010;5.420;2022-10-17T01:59:48;10.43;;;9.60;;
72109;SDS011;59983;52.010;5.420;2022-10-17T02:02:16;10.10;;;8.70;;
72109;SDS011;59983;52.010;5.420;2022-10-17T02:04:45;10.43;;;9.32;;
72109;SDS011;59983;52.010;5.420;2022-10-17T02:07:13;9.20;;;8.50;;
72109;SDS011;59983;52.010;5.420;2022-10-17T02:09:40;8.68;;;7.97;;
72109;SDS011;59983;52.010;5.420;2022-10-17T02:17:44;10.30;;;9.55;;
72109;SDS011;59983;52.010;5.420;2022-10-17T02:20:50;9.17;;;8.33;;
72109;SDS011;59983;52.010;5.420;2022-10-17T02:23:35;9.82;;;9.02;;
72109;SDS011;59983;52.010;5.420;2022-10-17T02:26:18;13.00;;;8.90;;
72109;SDS011;59983;52.010;5.420;2022-10-17T02:31:38;11.55;;;9.35;;
72109;SDS011;59983;52.010;5.420;2022-10-17T02:34:12;11.20;;;9.50;;
72109;SDS011;59983;52.010;5.420;2022-10-17T02:36:45;11.68;;;8.55;;
72109;SDS011;59983;52.010;5.420;2022-10-17T02:39:17;10.70;;;9.35;;
72109;SDS011;59983;52.010;5.420;2022-10-17T02:41:48;9.93;;;9.02;;
72109;SDS011;59983;52.010;5.420;2022-10-17T02:44:17;13.20;;;9.40;;
72109;SDS011;59983;52.010;5.420;2022-10-17T02:46:46;10.10;;;9.07;;
72109;SDS011;59983;52.010;5.420;2022-10-17T02:49:22;9.23;;;8.52;;
72109;SDS011;59983;52.010;5.420;2022-10-17T02:57:39;10.38;;;9.35;;
72109;SDS011;59983;52.010;5.420;2022-10-17T03:00:10;10.07;;;9.07;;
72109;SDS011;59983;52.010;5.420;2022-10-17T03:02:43;9.60;;;8.73;;
72109;SDS011;59983;52.010;5.420;2022-10-17T03:05:14;10.25;;;9.45;;
72109;SDS011;59983;52.010;5.420;2022-10-17T03:07:43;9.38;;;8.45;;
72109;SDS011;59983;52.010;5.420;2022-10-17T03:10:09;11.02;;;8.98;;
72109;SDS011;59983;52.010;5.420;2022-10-17T03:12:36;10.53;;;9.53;;
72109;SDS011;59983;52.010;5.420;2022-10-17T03:15:02;9.50;;;8.65;;
72109;SDS011;59983;52.010;5.420;2022-10-17T03:17:29;9.60;;;8.65;;
72109;SDS011;59983;52.010;5.420;2022-10-17T03:19:56;10.00;;;9.18;;
72109;SDS011;59983;52.010;5.420;2022-10-17T03:22:23;9.98;;;9.18;;
72109;SDS011;59983;52.010;5.420;2022-10-17T03:24:49;8.57;;;7.97;;
72109;SDS011;59983;52.010;5.420;2022-10-17T03:27:16;9.10;;;8.40;;
72109;SDS011;59983;52.010;5.420;2022-10-17T03:29:43;10.48;;;9.55;;
72109;SDS011;59983;52.010;5.420;2022-10-17T03:32:09;10.48;;;9.30;;
72109;SDS011;59983;52.010;5.420;2022-10-17T03:34:35;10.63;;;9.55;;
72109;SDS011;59983;52.010;5.420;2022-10-17T03:37:02;10.57;;;9.70;;
72109;SDS011;59983;52.010;5.420;2022-10-17T03:39:28;10.95;;;9.05;;
72109;SDS011;59983;52.010;5.420;2022-10-17T03:41:55;10.20;;;9.05;;
72109;SDS011;59983;52.010;5.420;2022-10-17T03:44:21;10.73;;;9.15;;
72109;SDS011;59983;52.010;5.420;2022-10-17T03:46:48;10.02;;;9.27;;
72109;SDS011;59983;52.010;5.420;2022-10-17T03:49:14;9.97;;;8.97;;
72109;SDS011;59983;52.010;5.420;2022-10-17T03:51:41;8.77;;;7.97;;
72109;SDS011;59983;52.010;5.420;2022-10-17T03:54:07;9.27;;;8.57;;
72109;SDS011;59983;52.010;5.420;2022-10-17T03:56:34;9.13;;;7.95;;
72109;SDS011;59983;52.010;5.420;2022-10-17T03:59:00;12.63;;;9.98;;
72109;SDS011;59983;52.010;5.420;2022-10-17T04:01:26;9.93;;;8.37;;
72109;SDS011;59983;52.010;5.420;2022-10-17T04:03:54;8.82;;;8.00;;
72109;SDS011;59983;52.010;5.420;2022-10-17T04:06:21;9.82;;;8.90;;
72109;SDS011;59983;52.010;5.420;2022-10-17T04:08:48;9.57;;;8.65;;
72109;SDS011;59983;52.010;5.420;2022-10-17T04:11:16;10.10;;;9.23;;
72109;SDS011;59983;52.010;5.420;2022-10-17T04:13:44;8.43;;;7.83;;
72109;SDS011;59983;52.010;5.420;2022-10-17T04:16:12;8.95;;;8.35;;
72109;SDS011;59983;52.010;5.420;2022-10-17T04:18:41;9.55;;;8.68;;
72109;SDS011;59983;52.010;5.420;2022-10-17T04:21:08;10.15;;;9.43;;
72109;SDS011;59983;52.010;5.420;2022-10-17T04:23:35;9.15;;;8.45;;
72109;SDS011;59983;52.010;5.420;2022-10-17T04:26:02;11.43;;;9.47;;
72109;SDS011;59983;52.010;5.420;2022-10-17T04:28:30;10.20;;;8.85;;
72109;SDS011;59983;52.010;5.420;2022-10-17T04:30:58;10.80;;;9.35;;
72109;SDS011;59983;52.010;5.420;2022-10-17T04:33:25;9.93;;;8.88;;
72109;SDS011;59983;52.010;5.420;2022-10-17T04:35:56;9.63;;;8.77;;
72109;SDS011;59983;52.010;5.420;2022-10-17T04:38:22;10.37;;;9.33;;
72109;SDS011;59983;52.010;5.420;2022-10-17T04:40:55;12.35;;;9.60;;
72109;SDS011;59983;52.010;5.420;2022-10-17T04:43:22;10.05;;;9.20;;
72109;SDS011;59983;52.010;5.420;2022-10-17T04:45:49;9.60;;;8.60;;
72109;SDS011;59983;52.010;5.420;2022-10-17T04:48:15;10.38;;;9.25;;
72109;SDS011;59983;52.010;5.420;2022-10-17T04:50:51;9.60;;;8.60;;
72109;SDS011;59983;52.010;5.420;2022-10-17T04:53:19;10.30;;;9.38;;
72109;SDS011;59983;52.010;5.420;2022-10-17T04:55:45;10.07;;;9.07;;
72109;SDS011;59983;52.010;5.420;2022-10-17T04:58:12;12.27;;;10.25;;
72109;SDS011;59983;52.010;5.420;2022-10-17T05:00:38;19.05;;;9.50;;
72109;SDS011;59983;52.010;5.420;2022-10-17T05:03:05;11.10;;;10.10;;
72109;SDS011;59983;52.010;5.420;2022-10-17T05:05:31;10.95;;;10.05;;
72109;SDS011;59983;52.010;5.420;2022-10-17T05:07:58;11.27;;;9.88;;
72109;SDS011;59983;52.010;5.420;2022-10-17T05:10:24;11.43;;;9.65;;
72109;SDS011;59983;52.010;5.420;2022-10-17T05:12:51;10.82;;;9.85;;
72109;SDS011;59983;52.010;5.420;2022-10-17T05:15:17;11.03;;;9.90;;
72109;SDS011;59983;52.010;5.420;2022-10-17T05:17:44;11.43;;;9.75;;
72109;SDS011;59983;52.010;5.420;2022-10-17T05:20:11;10.10;;;9.15;;
72109;SDS011;59983;52.010;5.420;2022-10-17T05:22:38;12.65;;;9.60;;
72109;SDS011;59983;52.010;5.420;2022-10-17T05:25:07;10.40;;;9.40;;
72109;SDS011;59983;52.010;5.420;2022-10-17T05:27:34;12.00;;;9.30;;
72109;SDS011;59983;52.010;5.420;2022-10-17T05:30:00;9.52;;;8.73;;
72109;SDS011;59983;52.010;5.420;2022-10-17T05:32:27;9.52;;;8.63;;
72109;SDS011;59983;52.010;5.420;2022-10-17T05:34:53;9.48;;;8.68;;
72109;SDS011;59983;52.010;5.420;2022-10-17T05:37:20;9.70;;;8.57;;
72109;SDS011;59983;52.010;5.420;2022-10-17T05:39:46;9.57;;;8.73;;
72109;SDS011;59983;52.010;5.420;2022-10-17T05:42:16;9.80;;;9.07;;
72109;SDS011;59983;52.010;5.420;2022-10-17T05:44:43;9.70;;;9.00;;
72109;SDS011;59983;52.010;5.420;2022-10-17T05:47:09;9.50;;;8.80;;
72109;SDS011;59983;52.010;5.420;2022-10-17T05:49:36;10.48;;;8.70;;
72109;SDS011;59983;52.010;5.420;2022-10-17T05:52:15;11.47;;;9.70;;
72109;SDS011;59983;52.010;5.420;2022-10-17T05:54:41;9.45;;;8.57;;
72109;SDS011;59983;52.010;5.420;2022-10-17T05:57:07;10.25;;;9.32;;
72109;SDS011;59983;52.010;5.420;2022-10-17T05:59:34;10.15;;;9.02;;
72109;SDS011;59983;52.010;5.420;2022-10-17T06:02:00;9.75;;;8.85;;
72109;SDS011;59983;52.010;5.420;2022-10-17T06:04:27;10.03;;;9.10;;
72109;SDS011;59983;52.010;5.420;2022-10-17T06:06:53;9.93;;;8.93;;
72109;SDS011;59983;52.010;5.420;2022-10-17T06:09:21;10.43;;;9.40;;
72109;SDS011;59983;52.010;5.420;2022-10-17T06:11:48;11.25;;;9.98;;
72109;SDS011;59983;52.010;5.420;2022-10-17T06:14:15;9.40;;;8.55;;
72109;SDS011;59983;52.010;5.420;2022-10-17T06:16:41;10.27;;;9.27;;
72109;SDS011;59983;52.010;5.420;2022-10-17T06:19:08;9.18;;;8.40;;
72109;SDS011;59983;52.010;5.420;2022-10-17T06:21:36;10.25;;;9.35;;
72109;SDS011;59983;52.010;5.420;2022-10-17T06:24:04;10.13;;;9.25;;
72109;SDS011;59983;52.010;5.420;2022-10-17T06:26:30;10.70;;;9.73;;
72109;SDS011;59983;52.010;5.420;2022-10-17T06:28:57;8.77;;;8.07;;
72109;SDS011;59983;52.010;5.420;2022-10-17T06:31:23;10.30;;;9.00;;
72109;SDS011;59983;52.010;5.420;2022-10-17T06:33:50;10.50;;;9.50;;
72109;SDS011;59983;52.010;5.420;2022-10-17T06:36:16;10.00;;;9.02;;
72109;SDS011;59983;52.010;5.420;2022-10-17T06:38:43;12.13;;;8.98;;
72109;SDS011;59983;52.010;5.420;2022-10-17T06:41:12;9.30;;;8.40;;
72109;SDS011;59983;52.010;5.420;2022-10-17T06:43:40;14.00;;;8.75;;
72109;SDS011;59983;52.010;5.420;2022-10-17T06:46:12;9.27;;;8.38;;
72109;SDS011;59983;52.010;5.420;2022-10-17T06:48:39;10.77;;;9.25;;
72109;SDS011;59983;52.010;5.420;2022-10-17T06:51:06;10.35;;;8.30;;
72109;SDS011;59983;52.010;5.420;2022-10-17T06:53:36;9.90;;;8.97;;
72109;SDS011;59983;52.010;5.420;2022-10-17T06:56:05;9.18;;;8.35;;
72109;SDS011;59983;52.010;5.420;2022-10-17T06:58:33;9.02;;;8.23;;
72109;SDS011;59983;52.010;5.420;2022-10-17T07:01:02;10.43;;;9.18;;
72109;SDS011;59983;52.010;5.420;2022-10-17T07:03:31;8.85;;;8.05;;
72109;SDS011;59983;52.010;5.420;2022-10-17T07:05:57;9.30;;;8.60;;
72109;SDS011;59983;52.010;5.420;2022-10-17T07:08:24;8.82;;;7.50;;
72109;SDS011;59983;52.010;5.420;2022-10-17T07:10:51;12.65;;;8.75;;
72109;SDS011;59983;52.010;5.420;2022-10-17T07:13:18;9.50;;;8.50;;
72109;SDS011;59983;52.010;5.420;2022-10-17T07:15:45;11.07;;;9.35;;
72109;SDS011;59983;52.010;5.420;2022-10-17T07:18:12;10.40;;;8.73;;
72109;SDS011;59983;52.010;5.420;2022-10-17T07:20:38;10.20;;;9.05;;
72109;SDS011;59983;52.010;5.420;2022-10-17T07:23:05;12.13;;;10.68;;
72109;SDS011;59983;52.010;5.420;2022-10-17T07:25:32;10.98;;;10.00;;
72109;SDS011;59983;52.010;5.420;2022-10-17T07:28:04;8.80;;;8.13;;
72109;SDS011;59983;52.010;5.420;2022-10-17T07:30:31;8.57;;;7.80;;
72109;SDS011;59983;52.010;5.420;2022-10-17T07:32:58;8.55;;;7.55;;
72109;SDS011;59983;52.010;5.420;2022-10-17T07:35:24;11.52;;;9.02;;
72109;SDS011;59983;52.010;5.420;2022-10-17T07:37:51;12.63;;;9.07;;
72109;SDS011;59983;52.010;5.420;2022-10-17T07:40:17;8.07;;;7.47;;
72109;SDS011;59983;52.010;5.420;2022-10-17T07:42:44;10.20;;;8.97;;
72109;SDS011;59983;52.010;5.420;2022-10-17T07:45:10;10.73;;;9.63;;
72109;SDS011;59983;52.010;5.420;2022-10-17T07:47:36;17.33;;;15.02;;
72109;SDS011;59983;52.010;5.420;2022-10-17T07:50:04;10.18;;;8.90;;
72109;SDS011;59983;52.010;5.420;2022-10-17T07:52:30;9.80;;;8.88;;
72109;SDS011;59983;52.010;5.420;2022-10-17T07:54:57;9.47;;;8.67;;
72109;SDS011;59983;52.010;5.420;2022-10-17T07:57:24;8.93;;;8.23;;
72109;SDS011;59983;52.010;5.420;2022-10-17T07:59:51;9.27;;;8.38;;
72109;SDS011;59983;52.010;5.420;2022-10-17T08:02:25;9.32;;;8.15;;
72109;SDS011;59983;52.010;5.420;2022-10-17T08:04:53;9.90;;;8.60;;
72109;SDS011;59983;52.010;5.420;2022-10-17T08:07:20;10.67;;;8.93;;
72109;SDS011;59983;52.010;5.420;2022-10-17T08:09:52;9.77;;;8.75;;
72109;SDS011;59983;52.010;5.420;2022-10-17T08:12:18;9.38;;;8.52;;
72109;SDS011;59983;52.010;5.420;2022-10-17T08:14:45;10.82;;;8.55;;
72109;SDS011;59983;52.010;5.420;2022-10-17T08:17:11;10.90;;;9.00;;
72109;SDS011;59983;52.010;5.420;2022-10-17T08:19:38;12.00;;;7.77;;
72109;SDS011;59983;52.010;5.420;2022-10-17T08:22:05;11.75;;;8.60;;
72109;SDS011;59983;52.010;5.420;2022-10-17T08:24:32;14.07;;;9.25;;
72109;SDS011;59983;52.010;5.420;2022-10-17T08:26:58;10.07;;;9.02;;
72109;SDS011;59983;52.010;5.420;2022-10-17T08:29:25;9.07;;;8.15;;
72109;SDS011;59983;52.010;5.420;2022-10-17T08:31:52;9.97;;;8.97;;
72109;SDS011;59983;52.010;5.420;2022-10-17T08:34:26;15.02;;;8.65;;
72109;SDS011;59983;52.010;5.420;2022-10-17T08:36:53;12.57;;;9.32;;
72109;SDS011;59983;52.010;5.420;2022-10-17T08:39:19;11.88;;;9.40;;
72109;SDS011;59983;52.010;5.420;2022-10-17T08:44:35;10.97;;;8.67;;
72109;SDS011;59983;52.010;5.420;2022-10-17T08:47:15;11.40;;;8.25;;
72109;SDS011;59983;52.010;5.420;2022-10-17T08:49:48;13.85;;;8.52;;
72109;SDS011;59983;52.010;5.420;2022-10-17T08:54:54;10.52;;;9.43;;
72109;SDS011;59983;52.010;5.420;2022-10-17T08:57:21;9.73;;;8.87;;
72109;SDS011;59983;52.010;5.420;2022-10-17T08:59:48;12.15;;;8.65;;
72109;SDS011;59983;52.010;5.420;2022-10-17T09:08:19;16.15;;;9.15;;
72109;SDS011;59983;52.010;5.420;2022-10-17T09:10:57;17.10;;;10.20;;
72109;SDS011;59983;52.010;5.420;2022-10-17T09:15:59;14.73;;;8.70;;
72109;SDS011;59983;52.010;5.420;2022-10-17T09:18:31;10.88;;;9.77;;
72109;SDS011;59983;52.010;5.420;2022-10-17T09:23:56;12.10;;;8.93;;
72109;SDS011;59983;52.010;5.420;2022-10-17T09:26:35;9.77;;;8.80;;
72109;SDS011;59983;52.010;5.420;2022-10-17T09:29:04;10.88;;;9.45;;
72109;SDS011;59983;52.010;5.420;2022-10-17T09:31:41;10.77;;;9.88;;
72109;SDS011;59983;52.010;5.420;2022-10-17T09:34:12;11.05;;;9.38;;
72109;SDS011;59983;52.010;5.420;2022-10-17T09:36:39;12.47;;;9.40;;
72109;SDS011;59983;52.010;5.420;2022-10-17T09:39:14;18.58;;;9.80;;
72109;SDS011;59983;52.010;5.420;2022-10-17T09:41:53;12.63;;;9.43;;
72109;SDS011;59983;52.010;5.420;2022-10-17T09:44:23;12.40;;;9.90;;
72109;SDS011;59983;52.010;5.420;2022-10-17T09:47:05;11.38;;;10.30;;
72109;SDS011;59983;52.010;5.420;2022-10-17T09:49:52;12.43;;;10.53;;
72109;SDS011;59983;52.010;5.420;2022-10-17T09:55:15;10.52;;;9.50;;
72109;SDS011;59983;52.010;5.420;2022-10-17T09:57:53;13.40;;;9.15;;
72109;SDS011;59983;52.010;5.420;2022-10-17T10:00:28;11.10;;;9.65;;
72109;SDS011;59983;52.010;5.420;2022-10-17T10:05:33;11.50;;;9.43;;
72109;SDS011;59983;52.010;5.420;2022-10-17T10:08:21;14.10;;;9.45;;
72109;SDS011;59983;52.010;5.420;2022-10-17T10:10:48;10.52;;;9.32;;
72109;SDS011;59983;52.010;5.420;2022-10-17T10:13:28;11.18;;;10.05;;
72109;SDS011;59983;52.010;5.420;2022-10-17T10:18:38;9.40;;;8.45;;
72109;SDS011;59983;52.010;5.420;2022-10-17T10:26:34;16.17;;;9.55;;
72109;SDS011;59983;52.010;5.420;2022-10-17T10:29:06;9.83;;;8.80;;
72109;SDS011;59983;52.010;5.420;2022-10-17T10:31:46;14.65;;;9.23;;
72109;SDS011;59983;52.010;5.420;2022-10-17T10:36:54;9.07;;;7.75;;
72109;SDS011;59983;52.010;5.420;2022-10-17T10:42:02;12.73;;;8.27;;
72109;SDS011;59983;52.010;5.420;2022-10-17T10:44:32;9.70;;;8.70;;
72109;SDS011;59983;52.010;5.420;2022-10-17T10:47:14;11.25;;;8.40;;
72109;SDS011;59983;52.010;5.420;2022-10-17T10:50:05;9.23;;;7.82;;
72109;SDS011;59983;52.010;5.420;2022-10-17T10:55:39;10.00;;;8.43;;
72109;SDS011;59983;52.010;5.420;2022-10-17T11:00:51;10.30;;;7.30;;
72109;SDS011;59983;52.010;5.420;2022-10-17T11:03:27;8.60;;;7.43;;
72109;SDS011;59983;52.010;5.420;2022-10-17T11:06:04;8.55;;;7.45;;
72109;SDS011;59983;52.010;5.420;2022-10-17T11:08:41;9.03;;;8.23;;
72109;SDS011;59983;52.010;5.420;2022-10-17T11:14:08;8.98;;;8.00;;
72109;SDS011;59983;52.010;5.420;2022-10-17T11:16:41;12.05;;;8.38;;
72109;SDS011;59983;52.010;5.420;2022-10-17T11:19:20;8.75;;;8.00;;
72109;SDS011;59983;52.010;5.420;2022-10-17T11:24:28;8.18;;;7.45;;
72109;SDS011;59983;52.010;5.420;2022-10-17T11:27:05;8.27;;;7.57;;
72109;SDS011;59983;52.010;5.420;2022-10-17T11:29:34;8.90;;;8.02;;
72109;SDS011;59983;52.010;5.420;2022-10-17T11:32:14;8.02;;;7.32;;
72109;SDS011;59983;52.010;5.420;2022-10-17T11:34:47;7.60;;;7.00;;
72109;SDS011;59983;52.010;5.420;2022-10-17T11:37:27;7.80;;;7.20;;
72109;SDS011;59983;52.010;5.420;2022-10-17T11:42:32;7.97;;;7.28;;
72109;SDS011;59983;52.010;5.420;2022-10-17T11:45:07;8.20;;;7.38;;
72109;SDS011;59983;52.010;5.420;2022-10-17T11:47:46;9.23;;;8.07;;
72109;SDS011;59983;52.010;5.420;2022-10-17T11:50:36;9.38;;;7.85;;
72109;SDS011;59983;52.010;5.420;2022-10-17T11:53:27;10.20;;;7.82;;
72109;SDS011;59983;52.010;5.420;2022-10-17T11:55:57;8.88;;;7.95;;
72109;SDS011;59983;52.010;5.420;2022-10-17T12:01:17;8.40;;;7.70;;
72109;SDS011;59983;52.010;5.420;2022-10-17T12:09:50;7.57;;;6.97;;
72109;SDS011;59983;52.010;5.420;2022-10-17T12:12:26;8.48;;;7.60;;
72109;SDS011;59983;52.010;5.420;2022-10-17T12:15:40;8.90;;;8.10;;
72109;SDS011;59983;52.010;5.420;2022-10-17T12:17:53;8.20;;;7.40;;
72109;SDS011;59983;52.010;5.420;2022-10-17T12:22:50;7.57;;;6.97;;
72109;SDS011;59983;52.010;5.420;2022-10-17T12:25:36;7.88;;;7.07;;
72109;SDS011;59983;52.010;5.420;2022-10-17T12:33:30;8.63;;;7.80;;
72109;SDS011;59983;52.010;5.420;2022-10-17T12:38:46;8.38;;;7.50;;
72109;SDS011;59983;52.010;5.420;2022-10-17T12:41:15;9.33;;;7.33;;
72109;SDS011;59983;52.010;5.420;2022-10-17T12:43:43;8.45;;;7.72;;
72109;SDS011;59983;52.010;5.420;2022-10-17T12:52:09;8.70;;;7.90;;
72109;SDS011;59983;52.010;5.420;2022-10-17T12:54:40;8.10;;;7.33;;
72109;SDS011;59983;52.010;5.420;2022-10-17T12:59:58;9.50;;;7.93;;
72109;SDS011;59983;52.010;5.420;2022-10-17T13:02:29;9.48;;;8.57;;
72109;SDS011;59983;52.010;5.420;2022-10-17T13:05:02;7.07;;;6.53;;
72109;SDS011;59983;52.010;5.420;2022-10-17T13:07:36;11.20;;;8.50;;
72109;SDS011;59983;52.010;5.420;2022-10-17T13:10:16;7.53;;;6.82;;
72109;SDS011;59983;52.010;5.420;2022-10-17T13:12:45;8.50;;;7.70;;
72109;SDS011;59983;52.010;5.420;2022-10-17T13:15:15;8.73;;;8.02;;
72109;SDS011;59983;52.010;5.420;2022-10-17T13:17:44;8.60;;;7.78;;
72109;SDS011;59983;52.010;5.420;2022-10-17T13:20:18;8.50;;;7.17;;
72109;SDS011;59983;52.010;5.420;2022-10-17T13:22:54;7.93;;;7.15;;
72109;SDS011;59983;52.010;5.420;2022-10-17T13:25:23;10.88;;;8.38;;
72109;SDS011;59983;52.010;5.420;2022-10-17T13:28:01;8.07;;;7.47;;
72109;SDS011;59983;52.010;5.420;2022-10-17T13:30:30;8.60;;;7.95;;
72109;SDS011;59983;52.010;5.420;2022-10-17T13:33:00;8.10;;;7.50;;
72109;SDS011;59983;52.010;5.420;2022-10-17T13:35:32;8.23;;;7.63;;
72109;SDS011;59983;52.010;5.420;2022-10-17T13:38:22;10.48;;;7.40;;
72109;SDS011;59983;52.010;5.420;2022-10-17T13:40:52;8.05;;;7.35;;
72109;SDS011;59983;52.010;5.420;2022-10-17T13:43:31;7.80;;;7.25;;
72109;SDS011;59983;52.010;5.420;2022-10-17T13:45:59;7.60;;;7.00;;
72109;SDS011;59983;52.010;5.420;2022-10-17T13:48:50;7.75;;;7.20;;
72109;SDS011;59983;52.010;5.420;2022-10-17T13:51:17;6.90;;;6.30;;
72109;SDS011;59983;52.010;5.420;2022-10-17T13:53:44;7.50;;;6.90;;
72109;SDS011;59983;52.010;5.420;2022-10-17T13:56:18;8.18;;;7.40;;
72109;SDS011;59983;52.010;5.420;2022-10-17T13:58:55;6.97;;;6.47;;
72109;SDS011;59983;52.010;5.420;2022-10-17T14:01:25;8.90;;;7.55;;
72109;SDS011;59983;52.010;5.420;2022-10-17T14:03:53;6.68;;;6.18;;
72109;SDS011;59983;52.010;5.420;2022-10-17T14:06:33;10.18;;;7.22;;
72109;SDS011;59983;52.010;5.420;2022-10-17T14:09:20;8.30;;;7.70;;
72109;SDS011;59983;52.010;5.420;2022-10-17T14:11:55;8.47;;;7.77;;
72109;SDS011;59983;52.010;5.420;2022-10-17T14:14:25;8.45;;;7.70;;
72109;SDS011;59983;52.010;5.420;2022-10-17T14:16:53;7.50;;;6.90;;
72109;SDS011;59983;52.010;5.420;2022-10-17T14:22:16;8.20;;;7.43;;
72109;SDS011;59983;52.010;5.420;2022-10-17T14:24:46;7.57;;;6.87;;
72109;SDS011;59983;52.010;5.420;2022-10-17T14:33:44;9.57;;;7.43;;
72109;SDS011;59983;52.010;5.420;2022-10-17T14:36:07;7.45;;;6.78;;
72109;SDS011;59983;52.010;5.420;2022-10-17T14:38:34;10.37;;;6.63;;
72109;SDS011;59983;52.010;5.420;2022-10-17T14:41:02;7.32;;;6.80;;
72109;SDS011;59983;52.010;5.420;2022-10-17T14:43:55;7.35;;;6.80;;
72109;SDS011;59983;52.010;5.420;2022-10-17T14:46:24;7.60;;;6.93;;
72109;SDS011;59983;52.010;5.420;2022-10-17T14:48:52;7.18;;;6.50;;
72109;SDS011;59983;52.010;5.420;2022-10-17T14:51:20;10.90;;;7.50;;
72109;SDS011;59983;52.010;5.420;2022-10-17T14:54:00;8.30;;;7.50;;
72109;SDS011;59983;52.010;5.420;2022-10-17T14:56:50;7.78;;;6.97;;
72109;SDS011;59983;52.010;5.420;2022-10-17T14:59:18;8.02;;;7.22;;
72109;SDS011;59983;52.010;5.420;2022-10-17T15:02:09;7.80;;;7.10;;
72109;SDS011;59983;52.010;5.420;2022-10-17T15:04:40;7.60;;;6.83;;
72109;SDS011;59983;52.010;5.420;2022-10-17T15:07:09;7.82;;;7.13;;
72109;SDS011;59983;52.010;5.420;2022-10-17T15:09:39;9.73;;;6.93;;
72109;SDS011;59983;52.010;5.420;2022-10-17T15:12:09;7.50;;;6.90;;
72109;SDS011;59983;52.010;5.420;2022-10-17T15:14:43;8.40;;;7.78;;
72109;SDS011;59983;52.010;5.420;2022-10-17T15:17:14;7.63;;;6.93;;
72109;SDS011;59983;52.010;5.420;2022-10-17T15:19:46;7.18;;;6.57;;
72109;SDS011;59983;52.010;5.420;2022-10-17T15:22:13;7.70;;;6.80;;
72109;SDS011;59983;52.010;5.420;2022-10-17T15:24:41;6.80;;;6.30;;
72109;SDS011;59983;52.010;5.420;2022-10-17T15:29:40;7.30;;;6.73;;
72109;SDS011;59983;52.010;5.420;2022-10-17T15:32:06;8.88;;;7.32;;
72109;SDS011;59983;52.010;5.420;2022-10-17T15:34:33;8.20;;;6.20;;
72109;SDS011;59983;52.010;5.420;2022-10-17T15:37:00;7.00;;;6.43;;
72109;SDS011;59983;52.010;5.420;2022-10-17T15:39:27;9.65;;;6.82;;
72109;SDS011;59983;52.010;5.420;2022-10-17T15:41:53;8.37;;;7.60;;
72109;SDS011;59983;52.010;5.420;2022-10-17T15:44:20;8.32;;;7.43;;
72109;SDS011;59983;52.010;5.420;2022-10-17T15:46:47;8.25;;;6.80;;
72109;SDS011;59983;52.010;5.420;2022-10-17T15:49:15;8.52;;;6.75;;
72109;SDS011;59983;52.010;5.420;2022-10-17T15:51:43;7.63;;;6.75;;
72109;SDS011;59983;52.010;5.420;2022-10-17T15:54:10;8.20;;;6.97;;
72109;SDS011;59983;52.010;5.420;2022-10-17T15:56:39;7.95;;;6.80;;
72109;SDS011;59983;52.010;5.420;2022-10-17T15:59:11;7.18;;;6.68;;
72109;SDS011;59983;52.010;5.420;2022-10-17T16:01:40;8.65;;;7.07;;
72109;SDS011;59983;52.010;5.420;2022-10-17T16:04:08;14.57;;;7.72;;
72109;SDS011;59983;52.010;5.420;2022-10-17T16:06:38;9.37;;;7.87;;
72109;SDS011;59983;52.010;5.420;2022-10-17T16:09:04;8.80;;;8.00;;
72109;SDS011;59983;52.010;5.420;2022-10-17T16:11:34;8.43;;;7.10;;
72109;SDS011;59983;52.010;5.420;2022-10-17T16:14:05;9.25;;;7.32;;
72109;SDS011;59983;52.010;5.420;2022-10-17T16:16:35;7.90;;;7.00;;
72109;SDS011;59983;52.010;5.420;2022-10-17T16:19:01;12.90;;;6.53;;
72109;SDS011;59983;52.010;5.420;2022-10-17T16:21:30;9.05;;;7.40;;
72109;SDS011;59983;52.010;5.420;2022-10-17T16:23:59;8.15;;;7.43;;
72109;SDS011;59983;52.010;5.420;2022-10-17T16:26:27;25.88;;;6.63;;
72109;SDS011;59983;52.010;5.420;2022-10-17T16:28:54;8.85;;;7.07;;
72109;SDS011;59983;52.010;5.420;2022-10-17T16:31:26;8.70;;;7.80;;
72109;SDS011;59983;52.010;5.420;2022-10-17T16:33:56;8.18;;;7.47;;
72109;SDS011;59983;52.010;5.420;2022-10-17T16:36:24;11.75;;;7.43;;
72109;SDS011;59983;52.010;5.420;2022-10-17T16:38:51;12.73;;;7.82;;
72109;SDS011;59983;52.010;5.420;2022-10-17T16:41:20;8.00;;;7.30;;
72109;SDS011;59983;52.010;5.420;2022-10-17T16:43:48;9.20;;;8.30;;
72109;SDS011;59983;52.010;5.420;2022-10-17T16:46:16;8.68;;;7.60;;
72109;SDS011;59983;52.010;5.420;2022-10-17T16:48:43;10.15;;;7.72;;
72109;SDS011;59983;52.010;5.420;2022-10-17T16:51:10;9.02;;;8.18;;
72109;SDS011;59983;52.010;5.420;2022-10-17T16:53:38;9.75;;;8.75;;
72109;SDS011;59983;52.010;5.420;2022-10-17T16:56:16;9.10;;;8.07;;
72109;SDS011;59983;52.010;5.420;2022-10-17T16:58:44;10.50;;;8.20;;
72109;SDS011;59983;52.010;5.420;2022-10-17T17:01:13;9.35;;;8.50;;
72109;SDS011;59983;52.010;5.420;2022-10-17T17:03:45;10.38;;;9.32;;
72109;SDS011;59983;52.010;5.420;2022-10-17T17:06:19;11.10;;;9.70;;
72109;SDS011;59983;52.010;5.420;2022-10-17T17:08:52;11.07;;;9.93;;